sensor_id;sensor_type;location;lat;lon;timestamp;temperature;humidity
52103;DHT22;38101;53.126;6.878;2023-08-06T00:00:24;14.50;99.90
52103;DHT22;38101;53.126;6.878;2023-08-06T00:02:50;14.50;99.90
52103;DHT22;38101;53.126;6.878;2023-08-06T00:05:16;14.50;99.90
52103;DHT22;38101;53.126;6.878;2023-08-06T00:07:47;14.50;99.90
52103;DHT22;38101;53.126;6.878;2023-08-06T00:10:13;14.50;99.90
52103;DHT22;38101;53.126;6.878;2023-08-06T00:12:38;14.50;99.90
52103;DHT22;38101;53.126;6.878;2023-08-06T00:15:04;14.50;99.90
52103;DHT22;38101;53.126;6.878;2023-08-06T00:17:30;14.50;99.90
52103;DHT22;38101;53.126;6.878;2023-08-06T00:19:56;14.50;99.90
52103;DHT22;38101;53.126;6.878;2023-08-06T00:22:22;14.50;99.90
52103;DHT22;38101;53.126;6.878;2023-08-06T00:24:47;14.50;99.90
52103;DHT22;38101;53.126;6.878;2023-08-06T00:27:13;14.50;99.90
52103;DHT22;38101;53.126;6.878;2023-08-06T00:29:38;14.50;99.90
52103;DHT22;38101;53.126;6.878;2023-08-06T00:32:04;14.50;99.90
52103;DHT22;38101;53.126;6.878;2023-08-06T00:34:30;14.50;99.90
52103;DHT22;38101;53.126;6.878;2023-08-06T00:36:56;14.50;99.90
52103;DHT22;38101;53.126;6.878;2023-08-06T00:39:21;14.50;99.90
52103;DHT22;38101;53.126;6.878;2023-08-06T00:41:47;14.50;99.90
52103;DHT22;38101;53.126;6.878;2023-08-06T00:44:13;14.50;99.90
52103;DHT22;38101;53.126;6.878;2023-08-06T00:46:38;14.40;99.90
52103;DHT22;38101;53.126;6.878;2023-08-06T00:49:05;14.50;99.90
52103;DHT22;38101;53.126;6.878;2023-08-06T00:51:31;14.50;99.90
52103;DHT22;38101;53.126;6.878;2023-08-06T00:53:57;14.40;99.90
52103;DHT22;38101;53.126;6.878;2023-08-06T00:56:24;14.40;99.90
52103;DHT22;38101;53.126;6.878;2023-08-06T00:58:51;14.50;99.90
52103;DHT22;38101;53.126;6.878;2023-08-06T01:01:16;14.50;99.90
52103;DHT22;38101;53.126;6.878;2023-08-06T01:03:42;14.50;99.90
52103;DHT22;38101;53.126;6.878;2023-08-06T01:06:08;14.50;99.90
52103;DHT22;38101;53.126;6.878;2023-08-06T01:08:50;14.50;99.90
52103;DHT22;38101;53.126;6.878;2023-08-06T01:11:44;14.50;99.90
52103;DHT22;38101;53.126;6.878;2023-08-06T01:14:47;14.50;99.90
52103;DHT22;38101;53.126;6.878;2023-08-06T01:17:14;14.50;99.90
52103;DHT22;38101;53.126;6.878;2023-08-06T01:19:39;14.50;99.90
52103;DHT22;38101;53.126;6.878;2023-08-06T01:22:05;14.50;99.90
52103;DHT22;38101;53.126;6.878;2023-08-06T01:24:31;14.50;99.90
52103;DHT22;38101;53.126;6.878;2023-08-06T01:27:06;14.50;99.90
52103;DHT22;38101;53.126;6.878;2023-08-06T01:29:39;14.50;99.90
52103;DHT22;38101;53.126;6.878;2023-08-06T01:32:05;14.50;99.90
52103;DHT22;38101;53.126;6.878;2023-08-06T01:34:33;14.50;99.90
52103;DHT22;38101;53.126;6.878;2023-08-06T01:37:00;14.50;99.90
52103;DHT22;38101;53.126;6.878;2023-08-06T01:39:27;14.50;99.90
52103;DHT22;38101;53.126;6.878;2023-08-06T01:41:52;14.50;99.90
52103;DHT22;38101;53.126;6.878;2023-08-06T01:44:18;14.50;99.90
52103;DHT22;38101;53.126;6.878;2023-08-06T01:46:44;14.50;99.90
52103;DHT22;38101;53.126;6.878;2023-08-06T01:49:10;14.50;99.90
52103;DHT22;38101;53.126;6.878;2023-08-06T01:51:35;14.50;99.90
52103;DHT22;38101;53.126;6.878;2023-08-06T01:54:01;14.50;99.90
52103;DHT22;38101;53.126;6.878;2023-08-06T01:56:27;14.50;99.90
52103;DHT22;38101;53.126;6.878;2023-08-06T01:58:53;14.50;99.90
52103;DHT22;38101;53.126;6.878;2023-08-06T02:01:18;14.50;99.90
52103;DHT22;38101;53.126;6.878;2023-08-06T02:03:44;14.50;99.90
52103;DHT22;38101;53.126;6.878;2023-08-06T02:06:09;14.50;99.90
52103;DHT22;38101;53.126;6.878;2023-08-06T02:08:35;14.50;99.90
52103;DHT22;38101;53.126;6.878;2023-08-06T02:11:01;14.50;99.90
52103;DHT22;38101;53.126;6.878;2023-08-06T02:13:28;14.50;99.90
52103;DHT22;38101;53.126;6.878;2023-08-06T02:15:53;14.50;99.90
52103;DHT22;38101;53.126;6.878;2023-08-06T02:18:19;14.50;99.90
52103;DHT22;38101;53.126;6.878;2023-08-06T02:20:55;14.50;99.90
52103;DHT22;38101;53.126;6.878;2023-08-06T02:23:21;14.50;99.90
52103;DHT22;38101;53.126;6.878;2023-08-06T02:25:47;14.50;99.90
52103;DHT22;38101;53.126;6.878;2023-08-06T02:28:13;14.50;99.90
52103;DHT22;38101;53.126;6.878;2023-08-06T02:30:38;14.50;99.90
52103;DHT22;38101;53.126;6.878;2023-08-06T02:33:04;14.50;99.90
52103;DHT22;38101;53.126;6.878;2023-08-06T02:35:30;14.50;99.90
52103;DHT22;38101;53.126;6.878;2023-08-06T02:37:55;14.50;99.90
52103;DHT22;38101;53.126;6.878;2023-08-06T02:40:21;14.50;99.90
52103;DHT22;38101;53.126;6.878;2023-08-06T02:42:47;14.60;99.90
52103;DHT22;38101;53.126;6.878;2023-08-06T02:45:12;14.60;99.90
52103;DHT22;38101;53.126;6.878;2023-08-06T02:47:38;14.60;99.90
52103;DHT22;38101;53.126;6.878;2023-08-06T02:50:04;14.60;99.90
52103;DHT22;38101;53.126;6.878;2023-08-06T02:52:30;14.60;99.90
52103;DHT22;38101;53.126;6.878;2023-08-06T02:54:55;14.50;99.90
52103;DHT22;38101;53.126;6.878;2023-08-06T02:57:21;14.50;99.90
52103;DHT22;38101;53.126;6.878;2023-08-06T02:59:47;14.50;99.90
52103;DHT22;38101;53.126;6.878;2023-08-06T03:02:12;14.50;99.90
52103;DHT22;38101;53.126;6.878;2023-08-06T03:04:38;14.50;99.90
52103;DHT22;38101;53.126;6.878;2023-08-06T03:07:04;14.40;99.90
52103;DHT22;38101;53.126;6.878;2023-08-06T03:09:29;14.40;99.90
52103;DHT22;38101;53.126;6.878;2023-08-06T03:11:55;14.40;99.90
52103;DHT22;38101;53.126;6.878;2023-08-06T03:14:20;14.40;99.90
52103;DHT22;38101;53.126;6.878;2023-08-06T03:16:46;14.40;99.90
52103;DHT22;38101;53.126;6.878;2023-08-06T03:19:12;14.30;99.90
52103;DHT22;38101;53.126;6.878;2023-08-06T03:21:37;14.40;99.90
52103;DHT22;38101;53.126;6.878;2023-08-06T03:24:03;14.30;99.90
52103;DHT22;38101;53.126;6.878;2023-08-06T03:26:29;14.30;99.90
52103;DHT22;38101;53.126;6.878;2023-08-06T03:28:54;14.30;99.90
52103;DHT22;38101;53.126;6.878;2023-08-06T03:31:20;14.30;99.90
52103;DHT22;38101;53.126;6.878;2023-08-06T03:33:46;14.30;99.90
52103;DHT22;38101;53.126;6.878;2023-08-06T03:36:11;14.30;99.90
52103;DHT22;38101;53.126;6.878;2023-08-06T03:38:37;14.30;99.90
52103;DHT22;38101;53.126;6.878;2023-08-06T03:41:02;14.30;99.90
52103;DHT22;38101;53.126;6.878;2023-08-06T03:43:28;14.30;99.90
52103;DHT22;38101;53.126;6.878;2023-08-06T03:45:54;14.30;99.90
52103;DHT22;38101;53.126;6.878;2023-08-06T03:48:19;14.30;99.90
52103;DHT22;38101;53.126;6.878;2023-08-06T03:50:45;14.30;99.90
52103;DHT22;38101;53.126;6.878;2023-08-06T03:53:11;14.30;99.90
52103;DHT22;38101;53.126;6.878;2023-08-06T03:55:37;14.30;99.90
52103;DHT22;38101;53.126;6.878;2023-08-06T03:58:02;14.40;99.90
52103;DHT22;38101;53.126;6.878;2023-08-06T04:00:28;14.30;99.90
52103;DHT22;38101;53.126;6.878;2023-08-06T04:02:53;14.40;99.90
52103;DHT22;38101;53.126;6.878;2023-08-06T04:05:19;14.40;99.90
52103;DHT22;38101;53.126;6.878;2023-08-06T04:07:45;14.40;99.90
52103;DHT22;38101;53.126;6.878;2023-08-06T04:10:11;14.40;99.90
52103;DHT22;38101;53.126;6.878;2023-08-06T04:12:36;14.40;99.90
52103;DHT22;38101;53.126;6.878;2023-08-06T04:15:04;14.40;99.90
52103;DHT22;38101;53.126;6.878;2023-08-06T04:17:30;14.30;99.90
52103;DHT22;38101;53.126;6.878;2023-08-06T04:19:56;14.40;99.90
52103;DHT22;38101;53.126;6.878;2023-08-06T04:22:24;14.40;99.90
52103;DHT22;38101;53.126;6.878;2023-08-06T04:24:49;14.40;99.90
52103;DHT22;38101;53.126;6.878;2023-08-06T04:27:16;14.40;99.90
52103;DHT22;38101;53.126;6.878;2023-08-06T04:29:42;14.40;99.90
52103;DHT22;38101;53.126;6.878;2023-08-06T04:32:09;14.40;99.90
52103;DHT22;38101;53.126;6.878;2023-08-06T04:34:36;14.40;99.90
52103;DHT22;38101;53.126;6.878;2023-08-06T04:37:02;14.40;99.90
52103;DHT22;38101;53.126;6.878;2023-08-06T04:39:28;14.40;99.90
52103;DHT22;38101;53.126;6.878;2023-08-06T04:41:55;14.40;99.90
52103;DHT22;38101;53.126;6.878;2023-08-06T04:44:21;14.50;99.90
52103;DHT22;38101;53.126;6.878;2023-08-06T04:46:47;14.50;99.90
52103;DHT22;38101;53.126;6.878;2023-08-06T04:49:13;14.40;99.90
52103;DHT22;38101;53.126;6.878;2023-08-06T04:51:38;14.50;99.90
52103;DHT22;38101;53.126;6.878;2023-08-06T04:54:04;14.50;99.90
52103;DHT22;38101;53.126;6.878;2023-08-06T04:56:30;14.50;99.90
52103;DHT22;38101;53.126;6.878;2023-08-06T04:58:55;14.60;99.90
52103;DHT22;38101;53.126;6.878;2023-08-06T05:01:21;14.60;99.90
52103;DHT22;38101;53.126;6.878;2023-08-06T05:03:47;14.60;99.90
52103;DHT22;38101;53.126;6.878;2023-08-06T05:06:13;14.60;99.90
52103;DHT22;38101;53.126;6.878;2023-08-06T05:08:38;14.60;99.90
52103;DHT22;38101;53.126;6.878;2023-08-06T05:11:04;14.60;99.90
52103;DHT22;38101;53.126;6.878;2023-08-06T05:13:30;14.60;99.90
52103;DHT22;38101;53.126;6.878;2023-08-06T05:15:56;14.60;99.90
52103;DHT22;38101;53.126;6.878;2023-08-06T05:18:21;14.60;99.90
52103;DHT22;38101;53.126;6.878;2023-08-06T05:20:47;14.70;99.90
52103;DHT22;38101;53.126;6.878;2023-08-06T05:23:13;14.70;99.90
52103;DHT22;38101;53.126;6.878;2023-08-06T05:25:39;14.70;99.90
52103;DHT22;38101;53.126;6.878;2023-08-06T05:28:05;14.70;99.90
52103;DHT22;38101;53.126;6.878;2023-08-06T05:30:30;14.70;99.90
52103;DHT22;38101;53.126;6.878;2023-08-06T05:32:56;14.80;99.90
52103;DHT22;38101;53.126;6.878;2023-08-06T05:35:22;14.80;99.90
52103;DHT22;38101;53.126;6.878;2023-08-06T05:37:50;14.80;99.90
52103;DHT22;38101;53.126;6.878;2023-08-06T05:40:16;14.80;99.90
52103;DHT22;38101;53.126;6.878;2023-08-06T05:42:42;14.90;99.90
52103;DHT22;38101;53.126;6.878;2023-08-06T05:45:08;14.90;99.90
52103;DHT22;38101;53.126;6.878;2023-08-06T05:47:34;15.00;99.90
52103;DHT22;38101;53.126;6.878;2023-08-06T05:49:59;15.00;99.90
52103;DHT22;38101;53.126;6.878;2023-08-06T05:52:25;15.00;99.90
52103;DHT22;38101;53.126;6.878;2023-08-06T05:54:51;15.00;99.90
52103;DHT22;38101;53.126;6.878;2023-08-06T05:57:17;15.10;99.90
52103;DHT22;38101;53.126;6.878;2023-08-06T05:59:43;15.10;99.90
52103;DHT22;38101;53.126;6.878;2023-08-06T06:02:09;15.10;99.90
52103;DHT22;38101;53.126;6.878;2023-08-06T06:04:35;15.20;99.90
52103;DHT22;38101;53.126;6.878;2023-08-06T06:07:01;15.20;99.90
52103;DHT22;38101;53.126;6.878;2023-08-06T06:09:26;15.30;99.90
52103;DHT22;38101;53.126;6.878;2023-08-06T06:11:52;15.30;99.90
52103;DHT22;38101;53.126;6.878;2023-08-06T06:14:18;15.40;99.90
52103;DHT22;38101;53.126;6.878;2023-08-06T06:16:45;15.50;99.90
52103;DHT22;38101;53.126;6.878;2023-08-06T06:19:11;15.50;99.90
52103;DHT22;38101;53.126;6.878;2023-08-06T06:21:37;15.60;99.90
52103;DHT22;38101;53.126;6.878;2023-08-06T06:24:05;15.70;99.90
52103;DHT22;38101;53.126;6.878;2023-08-06T06:26:32;15.70;99.90
52103;DHT22;38101;53.126;6.878;2023-08-06T06:28:57;15.80;99.90
52103;DHT22;38101;53.126;6.878;2023-08-06T06:31:23;15.80;99.90
52103;DHT22;38101;53.126;6.878;2023-08-06T06:33:49;15.80;99.90
52103;DHT22;38101;53.126;6.878;2023-08-06T06:36:15;15.80;99.90
52103;DHT22;38101;53.126;6.878;2023-08-06T06:38:40;15.90;99.90
52103;DHT22;38101;53.126;6.878;2023-08-06T06:41:06;15.90;99.90
52103;DHT22;38101;53.126;6.878;2023-08-06T06:43:32;16.00;99.90
52103;DHT22;38101;53.126;6.878;2023-08-06T06:45:59;16.00;99.90
52103;DHT22;38101;53.126;6.878;2023-08-06T06:48:31;16.00;99.90
52103;DHT22;38101;53.126;6.878;2023-08-06T06:50:56;16.10;99.90
52103;DHT22;38101;53.126;6.878;2023-08-06T06:53:22;16.20;99.90
52103;DHT22;38101;53.126;6.878;2023-08-06T06:56:02;16.20;99.90
52103;DHT22;38101;53.126;6.878;2023-08-06T06:58:29;16.30;99.90
52103;DHT22;38101;53.126;6.878;2023-08-06T07:00:55;16.30;99.90
52103;DHT22;38101;53.126;6.878;2023-08-06T07:03:20;16.30;99.90
52103;DHT22;38101;53.126;6.878;2023-08-06T07:05:46;16.40;99.90
52103;DHT22;38101;53.126;6.878;2023-08-06T07:08:12;16.40;99.90
52103;DHT22;38101;53.126;6.878;2023-08-06T07:10:41;16.40;99.90
52103;DHT22;38101;53.126;6.878;2023-08-06T07:13:07;16.40;99.90
52103;DHT22;38101;53.126;6.878;2023-08-06T07:15:33;16.40;99.90
52103;DHT22;38101;53.126;6.878;2023-08-06T07:17:58;16.40;99.90
52103;DHT22;38101;53.126;6.878;2023-08-06T07:20:24;16.50;99.90
52103;DHT22;38101;53.126;6.878;2023-08-06T07:22:50;16.50;99.90
52103;DHT22;38101;53.126;6.878;2023-08-06T07:25:16;16.50;99.90
52103;DHT22;38101;53.126;6.878;2023-08-06T07:27:42;16.60;99.90
52103;DHT22;38101;53.126;6.878;2023-08-06T07:30:08;16.60;99.90
52103;DHT22;38101;53.126;6.878;2023-08-06T07:32:34;16.70;99.90
52103;DHT22;38101;53.126;6.878;2023-08-06T07:35:00;16.70;99.90
52103;DHT22;38101;53.126;6.878;2023-08-06T07:37:29;16.80;99.90
52103;DHT22;38101;53.126;6.878;2023-08-06T07:39:56;16.80;99.90
52103;DHT22;38101;53.126;6.878;2023-08-06T07:42:22;16.90;99.90
52103;DHT22;38101;53.126;6.878;2023-08-06T07:44:56;16.90;99.90
52103;DHT22;38101;53.126;6.878;2023-08-06T07:47:22;16.90;99.90
52103;DHT22;38101;53.126;6.878;2023-08-06T07:49:48;17.00;99.90
52103;DHT22;38101;53.126;6.878;2023-08-06T07:52:14;17.00;99.90
52103;DHT22;38101;53.126;6.878;2023-08-06T07:54:39;17.00;99.90
52103;DHT22;38101;53.126;6.878;2023-08-06T07:57:05;17.10;99.90
52103;DHT22;38101;53.126;6.878;2023-08-06T07:59:31;17.10;99.90
52103;DHT22;38101;53.126;6.878;2023-08-06T08:01:57;17.20;99.90
52103;DHT22;38101;53.126;6.878;2023-08-06T08:04:24;17.20;99.90
52103;DHT22;38101;53.126;6.878;2023-08-06T08:06:50;17.30;99.90
52103;DHT22;38101;53.126;6.878;2023-08-06T08:09:15;17.30;99.90
52103;DHT22;38101;53.126;6.878;2023-08-06T08:11:42;17.40;99.90
52103;DHT22;38101;53.126;6.878;2023-08-06T08:14:07;17.40;99.90
52103;DHT22;38101;53.126;6.878;2023-08-06T08:16:33;17.50;99.90
52103;DHT22;38101;53.126;6.878;2023-08-06T08:18:59;17.50;99.90
52103;DHT22;38101;53.126;6.878;2023-08-06T08:21:25;17.60;99.90
52103;DHT22;38101;53.126;6.878;2023-08-06T08:23:51;17.60;99.90
52103;DHT22;38101;53.126;6.878;2023-08-06T08:26:17;17.70;99.90
52103;DHT22;38101;53.126;6.878;2023-08-06T08:28:43;17.70;99.90
52103;DHT22;38101;53.126;6.878;2023-08-06T08:31:10;17.80;99.90
52103;DHT22;38101;53.126;6.878;2023-08-06T08:33:37;17.90;99.90
52103;DHT22;38101;53.126;6.878;2023-08-06T08:36:03;17.90;99.90
52103;DHT22;38101;53.126;6.878;2023-08-06T08:38:29;17.90;99.90
52103;DHT22;38101;53.126;6.878;2023-08-06T08:40:55;17.90;99.90
52103;DHT22;38101;53.126;6.878;2023-08-06T08:43:21;18.00;99.90
52103;DHT22;38101;53.126;6.878;2023-08-06T08:45:50;18.00;99.90
52103;DHT22;38101;53.126;6.878;2023-08-06T08:48:17;18.00;99.90
52103;DHT22;38101;53.126;6.878;2023-08-06T08:50:45;18.10;99.90
52103;DHT22;38101;53.126;6.878;2023-08-06T08:53:14;18.10;99.90
52103;DHT22;38101;53.126;6.878;2023-08-06T08:55:41;18.10;99.90
52103;DHT22;38101;53.126;6.878;2023-08-06T08:58:08;18.20;99.90
52103;DHT22;38101;53.126;6.878;2023-08-06T09:00:34;18.20;99.90
52103;DHT22;38101;53.126;6.878;2023-08-06T09:03:01;18.30;99.90
52103;DHT22;38101;53.126;6.878;2023-08-06T09:05:29;18.30;99.90
52103;DHT22;38101;53.126;6.878;2023-08-06T09:08:02;18.30;99.90
52103;DHT22;38101;53.126;6.878;2023-08-06T09:10:28;18.30;99.90
52103;DHT22;38101;53.126;6.878;2023-08-06T09:12:56;18.30;99.90
52103;DHT22;38101;53.126;6.878;2023-08-06T09:15:26;18.40;99.90
52103;DHT22;38101;53.126;6.878;2023-08-06T09:17:53;18.50;99.90
52103;DHT22;38101;53.126;6.878;2023-08-06T09:20:20;18.50;99.90
52103;DHT22;38101;53.126;6.878;2023-08-06T09:22:45;18.60;99.90
52103;DHT22;38101;53.126;6.878;2023-08-06T09:25:24;18.60;99.90
52103;DHT22;38101;53.126;6.878;2023-08-06T09:27:51;18.70;99.90
52103;DHT22;38101;53.126;6.878;2023-08-06T09:30:30;18.70;99.90
52103;DHT22;38101;53.126;6.878;2023-08-06T09:32:56;18.80;99.90
52103;DHT22;38101;53.126;6.878;2023-08-06T09:35:22;18.80;99.90
52103;DHT22;38101;53.126;6.878;2023-08-06T09:37:48;18.80;99.90
52103;DHT22;38101;53.126;6.878;2023-08-06T09:42:52;18.90;99.90
52103;DHT22;38101;53.126;6.878;2023-08-06T09:45:18;18.90;99.90
52103;DHT22;38101;53.126;6.878;2023-08-06T09:47:43;19.00;99.90
52103;DHT22;38101;53.126;6.878;2023-08-06T09:50:19;19.10;99.90
52103;DHT22;38101;53.126;6.878;2023-08-06T09:52:46;19.20;99.90
52103;DHT22;38101;53.126;6.878;2023-08-06T09:55:13;19.30;99.90
52103;DHT22;38101;53.126;6.878;2023-08-06T09:57:39;19.40;99.90
52103;DHT22;38101;53.126;6.878;2023-08-06T10:00:06;19.50;99.90
52103;DHT22;38101;53.126;6.878;2023-08-06T10:02:35;19.60;99.90
52103;DHT22;38101;53.126;6.878;2023-08-06T10:05:01;19.80;99.90
52103;DHT22;38101;53.126;6.878;2023-08-06T10:07:29;19.90;99.90
52103;DHT22;38101;53.126;6.878;2023-08-06T10:09:55;20.00;99.90
52103;DHT22;38101;53.126;6.878;2023-08-06T10:12:22;20.10;99.90
52103;DHT22;38101;53.126;6.878;2023-08-06T10:14:51;20.10;99.90
52103;DHT22;38101;53.126;6.878;2023-08-06T10:17:20;20.20;99.90
52103;DHT22;38101;53.126;6.878;2023-08-06T10:19:47;20.40;99.90
52103;DHT22;38101;53.126;6.878;2023-08-06T10:22:17;20.40;99.90
52103;DHT22;38101;53.126;6.878;2023-08-06T10:24:54;20.50;99.90
52103;DHT22;38101;53.126;6.878;2023-08-06T10:27:29;20.60;99.90
52103;DHT22;38101;53.126;6.878;2023-08-06T10:32:56;20.90;99.90
52103;DHT22;38101;53.126;6.878;2023-08-06T10:38:05;21.00;99.90
52103;DHT22;38101;53.126;6.878;2023-08-06T10:40:32;21.20;99.90
52103;DHT22;38101;53.126;6.878;2023-08-06T10:43:01;21.20;99.90
52103;DHT22;38101;53.126;6.878;2023-08-06T10:45:27;21.20;99.90
52103;DHT22;38101;53.126;6.878;2023-08-06T10:47:57;21.20;99.90
52103;DHT22;38101;53.126;6.878;2023-08-06T10:50:24;21.10;99.90
52103;DHT22;38101;53.126;6.878;2023-08-06T10:52:50;21.00;99.90
52103;DHT22;38101;53.126;6.878;2023-08-06T10:55:27;20.90;99.90
52103;DHT22;38101;53.126;6.878;2023-08-06T10:57:53;20.90;99.90
52103;DHT22;38101;53.126;6.878;2023-08-06T11:00:21;20.80;99.90
52103;DHT22;38101;53.126;6.878;2023-08-06T11:02:48;20.80;99.90
52103;DHT22;38101;53.126;6.878;2023-08-06T11:05:14;20.80;99.90
52103;DHT22;38101;53.126;6.878;2023-08-06T11:07:40;20.70;99.90
52103;DHT22;38101;53.126;6.878;2023-08-06T11:10:08;20.70;99.90
52103;DHT22;38101;53.126;6.878;2023-08-06T11:12:34;20.60;99.90
52103;DHT22;38101;53.126;6.878;2023-08-06T11:15:01;20.50;99.90
52103;DHT22;38101;53.126;6.878;2023-08-06T11:17:28;20.50;99.90
52103;DHT22;38101;53.126;6.878;2023-08-06T11:19:54;20.40;99.90
52103;DHT22;38101;53.126;6.878;2023-08-06T11:22:23;20.40;99.90
52103;DHT22;38101;53.126;6.878;2023-08-06T11:24:49;20.40;99.90
52103;DHT22;38101;53.126;6.878;2023-08-06T11:27:16;20.50;99.90
52103;DHT22;38101;53.126;6.878;2023-08-06T11:29:43;20.40;99.90
52103;DHT22;38101;53.126;6.878;2023-08-06T11:32:09;20.30;99.90
52103;DHT22;38101;53.126;6.878;2023-08-06T11:34:36;20.40;99.90
52103;DHT22;38101;53.126;6.878;2023-08-06T11:37:06;20.30;99.90
52103;DHT22;38101;53.126;6.878;2023-08-06T11:39:33;20.30;99.90
52103;DHT22;38101;53.126;6.878;2023-08-06T11:41:58;20.40;99.90
52103;DHT22;38101;53.126;6.878;2023-08-06T11:44:30;20.50;99.90
52103;DHT22;38101;53.126;6.878;2023-08-06T11:46:56;20.70;99.90
52103;DHT22;38101;53.126;6.878;2023-08-06T11:52:21;21.10;99.90
52103;DHT22;38101;53.126;6.878;2023-08-06T11:57:25;21.40;99.90
52103;DHT22;38101;53.126;6.878;2023-08-06T11:59:51;21.50;99.90
52103;DHT22;38101;53.126;6.878;2023-08-06T12:02:16;21.60;99.90
52103;DHT22;38101;53.126;6.878;2023-08-06T12:05:04;21.60;99.90
52103;DHT22;38101;53.126;6.878;2023-08-06T12:07:38;21.80;99.90
52103;DHT22;38101;53.126;6.878;2023-08-06T12:10:04;21.80;99.90
52103;DHT22;38101;53.126;6.878;2023-08-06T12:12:30;21.90;99.90
52103;DHT22;38101;53.126;6.878;2023-08-06T12:14:56;22.00;99.90
52103;DHT22;38101;53.126;6.878;2023-08-06T12:17:23;22.20;99.90
52103;DHT22;38101;53.126;6.878;2023-08-06T12:19:49;22.30;99.90
52103;DHT22;38101;53.126;6.878;2023-08-06T12:22:15;22.40;99.90
52103;DHT22;38101;53.126;6.878;2023-08-06T12:24:45;22.50;99.90
52103;DHT22;38101;53.126;6.878;2023-08-06T12:27:11;22.60;99.90
52103;DHT22;38101;53.126;6.878;2023-08-06T12:29:57;22.70;99.90
52103;DHT22;38101;53.126;6.878;2023-08-06T12:32:23;22.70;99.90
52103;DHT22;38101;53.126;6.878;2023-08-06T12:34:48;22.70;99.90
52103;DHT22;38101;53.126;6.878;2023-08-06T12:37:14;22.80;99.90
52103;DHT22;38101;53.126;6.878;2023-08-06T12:39:40;22.70;99.90
52103;DHT22;38101;53.126;6.878;2023-08-06T12:42:06;22.60;99.90
52103;DHT22;38101;53.126;6.878;2023-08-06T12:44:32;22.70;99.90
52103;DHT22;38101;53.126;6.878;2023-08-06T12:46:58;22.70;99.90
52103;DHT22;38101;53.126;6.878;2023-08-06T12:49:25;22.70;99.90
52103;DHT22;38101;53.126;6.878;2023-08-06T12:51:52;22.80;99.90
52103;DHT22;38101;53.126;6.878;2023-08-06T12:54:22;22.80;99.90
52103;DHT22;38101;53.126;6.878;2023-08-06T12:56:48;22.90;99.90
52103;DHT22;38101;53.126;6.878;2023-08-06T12:59:15;23.00;99.90
52103;DHT22;38101;53.126;6.878;2023-08-06T13:01:41;23.10;99.90
52103;DHT22;38101;53.126;6.878;2023-08-06T13:04:07;23.30;99.90
52103;DHT22;38101;53.126;6.878;2023-08-06T13:06:33;23.40;99.90
52103;DHT22;38101;53.126;6.878;2023-08-06T13:09:03;23.50;99.90
52103;DHT22;38101;53.126;6.878;2023-08-06T13:11:30;23.60;99.90
52103;DHT22;38101;53.126;6.878;2023-08-06T13:14:04;23.70;99.90
52103;DHT22;38101;53.126;6.878;2023-08-06T13:16:29;23.70;99.90
52103;DHT22;38101;53.126;6.878;2023-08-06T13:18:55;23.80;99.90
52103;DHT22;38101;53.126;6.878;2023-08-06T13:21:21;23.80;99.90
52103;DHT22;38101;53.126;6.878;2023-08-06T13:23:46;23.80;99.90
52103;DHT22;38101;53.126;6.878;2023-08-06T13:26:13;23.70;99.90
52103;DHT22;38101;53.126;6.878;2023-08-06T13:28:39;23.60;99.90
52103;DHT22;38101;53.126;6.878;2023-08-06T13:31:05;23.60;99.90
52103;DHT22;38101;53.126;6.878;2023-08-06T13:33:30;23.60;99.90
52103;DHT22;38101;53.126;6.878;2023-08-06T13:35:56;23.70;99.90
52103;DHT22;38101;53.126;6.878;2023-08-06T13:38:22;23.80;99.90
52103;DHT22;38101;53.126;6.878;2023-08-06T13:40:48;23.80;99.90
52103;DHT22;38101;53.126;6.878;2023-08-06T13:43:13;23.90;99.90
52103;DHT22;38101;53.126;6.878;2023-08-06T13:45:42;23.80;99.90
52103;DHT22;38101;53.126;6.878;2023-08-06T13:48:08;23.80;99.90
52103;DHT22;38101;53.126;6.878;2023-08-06T13:50:36;23.80;99.90
52103;DHT22;38101;53.126;6.878;2023-08-06T13:53:02;23.80;99.90
52103;DHT22;38101;53.126;6.878;2023-08-06T13:55:28;23.80;99.90
52103;DHT22;38101;53.126;6.878;2023-08-06T13:57:55;23.80;99.90
52103;DHT22;38101;53.126;6.878;2023-08-06T14:00:21;23.90;99.90
52103;DHT22;38101;53.126;6.878;2023-08-06T14:02:46;23.90;99.90
52103;DHT22;38101;53.126;6.878;2023-08-06T14:05:12;24.10;99.90
52103;DHT22;38101;53.126;6.878;2023-08-06T14:07:38;24.10;99.30
52103;DHT22;38101;53.126;6.878;2023-08-06T14:10:05;24.10;98.90
52103;DHT22;38101;53.126;6.878;2023-08-06T14:12:31;24.10;97.90
52103;DHT22;38101;53.126;6.878;2023-08-06T14:14:57;24.00;97.60
52103;DHT22;38101;53.126;6.878;2023-08-06T14:17:22;23.90;98.60
52103;DHT22;38101;53.126;6.878;2023-08-06T14:19:48;23.90;99.00
52103;DHT22;38101;53.126;6.878;2023-08-06T14:22:14;24.00;98.70
52103;DHT22;38101;53.126;6.878;2023-08-06T14:24:39;24.00;99.10
52103;DHT22;38101;53.126;6.878;2023-08-06T14:27:06;24.00;99.00
52103;DHT22;38101;53.126;6.878;2023-08-06T14:29:32;24.00;98.80
52103;DHT22;38101;53.126;6.878;2023-08-06T14:31:57;24.00;99.30
52103;DHT22;38101;53.126;6.878;2023-08-06T14:34:23;24.00;99.60
52103;DHT22;38101;53.126;6.878;2023-08-06T14:36:49;24.10;99.90
52103;DHT22;38101;53.126;6.878;2023-08-06T14:39:14;24.10;99.50
52103;DHT22;38101;53.126;6.878;2023-08-06T14:41:40;24.00;99.90
52103;DHT22;38101;53.126;6.878;2023-08-06T14:44:06;23.90;99.90
52103;DHT22;38101;53.126;6.878;2023-08-06T14:46:32;23.70;99.90
52103;DHT22;38101;53.126;6.878;2023-08-06T14:48:58;23.50;99.90
52103;DHT22;38101;53.126;6.878;2023-08-06T14:51:24;23.30;99.90
52103;DHT22;38101;53.126;6.878;2023-08-06T14:53:50;23.20;99.90
52103;DHT22;38101;53.126;6.878;2023-08-06T14:56:15;23.10;99.90
52103;DHT22;38101;53.126;6.878;2023-08-06T14:58:41;23.00;99.90
52103;DHT22;38101;53.126;6.878;2023-08-06T15:01:07;22.90;99.90
52103;DHT22;38101;53.126;6.878;2023-08-06T15:03:33;22.90;99.90
52103;DHT22;38101;53.126;6.878;2023-08-06T15:05:59;23.00;99.90
52103;DHT22;38101;53.126;6.878;2023-08-06T15:08:25;23.00;99.90
52103;DHT22;38101;53.126;6.878;2023-08-06T15:10:51;22.90;99.90
52103;DHT22;38101;53.126;6.878;2023-08-06T15:13:18;23.00;99.90
52103;DHT22;38101;53.126;6.878;2023-08-06T15:15:43;22.90;99.90
52103;DHT22;38101;53.126;6.878;2023-08-06T15:18:10;23.00;99.90
52103;DHT22;38101;53.126;6.878;2023-08-06T15:20:36;23.10;99.90
52103;DHT22;38101;53.126;6.878;2023-08-06T15:23:02;23.20;99.90
52103;DHT22;38101;53.126;6.878;2023-08-06T15:25:28;23.30;99.90
52103;DHT22;38101;53.126;6.878;2023-08-06T15:27:54;23.30;99.90
52103;DHT22;38101;53.126;6.878;2023-08-06T15:30:19;23.30;99.90
52103;DHT22;38101;53.126;6.878;2023-08-06T15:32:46;23.30;99.90
52103;DHT22;38101;53.126;6.878;2023-08-06T15:35:13;23.30;99.90
52103;DHT22;38101;53.126;6.878;2023-08-06T15:37:39;23.20;99.90
52103;DHT22;38101;53.126;6.878;2023-08-06T15:40:06;23.20;99.90